sensor_id;sensor_type;location;lat;lon;timestamp;temperature;humidity
24158;DHT22;12316;50.904;4.200;2022-10-22T00:01:08;16.00;99.90
24158;DHT22;12316;50.904;4.200;2022-10-22T00:03:33;16.00;99.90
24158;DHT22;12316;50.904;4.200;2022-10-22T00:05:59;16.00;99.90
24158;DHT22;12316;50.904;4.200;2022-10-22T00:08:25;16.00;99.90
24158;DHT22;12316;50.904;4.200;2022-10-22T00:10:50;16.00;99.90
24158;DHT22;12316;50.904;4.200;2022-10-22T00:13:17;16.00;99.90
24158;DHT22;12316;50.904;4.200;2022-10-22T00:15:43;16.00;99.90
24158;DHT22;12316;50.904;4.200;2022-10-22T00:18:09;16.00;99.90
24158;DHT22;12316;50.904;4.200;2022-10-22T00:20:34;16.00;99.90
24158;DHT22;12316;50.904;4.200;2022-10-22T00:23:01;15.90;99.90
24158;DHT22;12316;50.904;4.200;2022-10-22T00:25:26;15.90;99.90
24158;DHT22;12316;50.904;4.200;2022-10-22T00:27:52;15.90;99.90
24158;DHT22;12316;50.904;4.200;2022-10-22T00:30:18;15.90;99.90
24158;DHT22;12316;50.904;4.200;2022-10-22T00:32:43;15.90;99.90
24158;DHT22;12316;50.904;4.200;2022-10-22T00:35:09;15.90;99.90
24158;DHT22;12316;50.904;4.200;2022-10-22T00:37:35;15.80;99.90
24158;DHT22;12316;50.904;4.200;2022-10-22T00:40:00;15.80;99.90
24158;DHT22;12316;50.904;4.200;2022-10-22T00:42:27;15.80;99.90
24158;DHT22;12316;50.904;4.200;2022-10-22T00:45:04;15.80;99.90
24158;DHT22;12316;50.904;4.200;2022-10-22T00:50:40;15.80;99.90
24158;DHT22;12316;50.904;4.200;2022-10-22T00:53:13;15.80;99.90
24158;DHT22;12316;50.904;4.200;2022-10-22T00:55:41;15.80;99.90
24158;DHT22;12316;50.904;4.200;2022-10-22T00:58:07;15.80;99.90
24158;DHT22;12316;50.904;4.200;2022-10-22T01:00:33;15.80;99.90
24158;DHT22;12316;50.904;4.200;2022-10-22T01:02:59;15.90;99.90
24158;DHT22;12316;50.904;4.200;2022-10-22T01:05:27;16.00;99.90
24158;DHT22;12316;50.904;4.200;2022-10-22T01:07:53;15.80;99.90
24158;DHT22;12316;50.904;4.200;2022-10-22T01:10:44;15.80;99.90
24158;DHT22;12316;50.904;4.200;2022-10-22T01:13:30;15.70;99.90
24158;DHT22;12316;50.904;4.200;2022-10-22T01:16:10;15.70;99.90
24158;DHT22;12316;50.904;4.200;2022-10-22T01:21:35;15.60;99.90
24158;DHT22;12316;50.904;4.200;2022-10-22T01:32:21;15.70;99.90
24158;DHT22;12316;50.904;4.200;2022-10-22T01:34:59;15.70;99.90
24158;DHT22;12316;50.904;4.200;2022-10-22T01:37:28;15.70;99.90
24158;DHT22;12316;50.904;4.200;2022-10-22T01:39:57;15.70;99.90
24158;DHT22;12316;50.904;4.200;2022-10-22T01:42:23;15.80;99.90
24158;DHT22;12316;50.904;4.200;2022-10-22T01:44:49;15.80;99.90
24158;DHT22;12316;50.904;4.200;2022-10-22T01:47:53;15.90;99.90
24158;DHT22;12316;50.904;4.200;2022-10-22T01:58:28;15.90;99.90
24158;DHT22;12316;50.904;4.200;2022-10-22T02:01:08;16.00;99.90
24158;DHT22;12316;50.904;4.200;2022-10-22T02:03:55;16.00;99.90
24158;DHT22;12316;50.904;4.200;2022-10-22T02:06:25;15.90;99.90
24158;DHT22;12316;50.904;4.200;2022-10-22T02:08:52;16.00;99.90
24158;DHT22;12316;50.904;4.200;2022-10-22T02:11:18;15.90;99.90
24158;DHT22;12316;50.904;4.200;2022-10-22T02:13:51;15.90;99.90
24158;DHT22;12316;50.904;4.200;2022-10-22T02:16:18;15.90;99.90
24158;DHT22;12316;50.904;4.200;2022-10-22T02:18:48;15.90;99.90
24158;DHT22;12316;50.904;4.200;2022-10-22T02:21:15;15.90;99.90
24158;DHT22;12316;50.904;4.200;2022-10-22T02:23:41;15.90;99.90
24158;DHT22;12316;50.904;4.200;2022-10-22T02:26:30;15.90;99.90
24158;DHT22;12316;50.904;4.200;2022-10-22T02:31:30;15.90;99.90
24158;DHT22;12316;50.904;4.200;2022-10-22T02:34:01;15.90;99.90
24158;DHT22;12316;50.904;4.200;2022-10-22T02:36:29;15.90;99.90
24158;DHT22;12316;50.904;4.200;2022-10-22T02:38:55;15.80;99.90
24158;DHT22;12316;50.904;4.200;2022-10-22T02:41:22;15.80;99.90
24158;DHT22;12316;50.904;4.200;2022-10-22T02:43:54;15.90;99.90
24158;DHT22;12316;50.904;4.200;2022-10-22T02:46:20;15.80;99.90
24158;DHT22;12316;50.904;4.200;2022-10-22T02:48:46;15.90;99.90
24158;DHT22;12316;50.904;4.200;2022-10-22T02:51:11;15.90;99.90
24158;DHT22;12316;50.904;4.200;2022-10-22T02:53:37;15.90;99.90
24158;DHT22;12316;50.904;4.200;2022-10-22T02:56:03;15.90;99.90
24158;DHT22;12316;50.904;4.200;2022-10-22T02:58:28;15.90;99.90
24158;DHT22;12316;50.904;4.200;2022-10-22T03:00:54;15.90;99.90
24158;DHT22;12316;50.904;4.200;2022-10-22T03:03:20;15.90;99.90
24158;DHT22;12316;50.904;4.200;2022-10-22T03:05:45;15.90;99.90
24158;DHT22;12316;50.904;4.200;2022-10-22T03:08:11;15.90;99.90
24158;DHT22;12316;50.904;4.200;2022-10-22T03:10:36;15.90;99.90
24158;DHT22;12316;50.904;4.200;2022-10-22T03:13:02;15.90;99.90
24158;DHT22;12316;50.904;4.200;2022-10-22T03:15:27;15.90;99.90
24158;DHT22;12316;50.904;4.200;2022-10-22T03:17:54;15.90;99.90
24158;DHT22;12316;50.904;4.200;2022-10-22T03:20:19;15.90;99.90
24158;DHT22;12316;50.904;4.200;2022-10-22T03:22:45;16.00;99.90
24158;DHT22;12316;50.904;4.200;2022-10-22T03:25:13;15.90;99.90
24158;DHT22;12316;50.904;4.200;2022-10-22T03:27:42;16.00;99.90
24158;DHT22;12316;50.904;4.200;2022-10-22T03:30:08;16.00;99.90
24158;DHT22;12316;50.904;4.200;2022-10-22T03:32:34;16.00;99.90
24158;DHT22;12316;50.904;4.200;2022-10-22T03:34:59;16.10;99.90
24158;DHT22;12316;50.904;4.200;2022-10-22T03:37:26;16.10;99.90
24158;DHT22;12316;50.904;4.200;2022-10-22T03:39:53;16.10;99.90
24158;DHT22;12316;50.904;4.200;2022-10-22T03:42:19;16.20;99.90
24158;DHT22;12316;50.904;4.200;2022-10-22T03:44:45;16.20;99.90
24158;DHT22;12316;50.904;4.200;2022-10-22T03:47:10;16.20;99.90
24158;DHT22;12316;50.904;4.200;2022-10-22T03:49:36;16.20;99.90
24158;DHT22;12316;50.904;4.200;2022-10-22T03:52:07;16.20;99.90
24158;DHT22;12316;50.904;4.200;2022-10-22T03:54:32;16.10;99.90
24158;DHT22;12316;50.904;4.200;2022-10-22T03:56:59;16.10;99.90
24158;DHT22;12316;50.904;4.200;2022-10-22T03:59:24;16.00;99.90
24158;DHT22;12316;50.904;4.200;2022-10-22T04:01:50;16.00;99.90
24158;DHT22;12316;50.904;4.200;2022-10-22T04:04:16;16.00;99.90
24158;DHT22;12316;50.904;4.200;2022-10-22T04:06:41;16.10;99.90
24158;DHT22;12316;50.904;4.200;2022-10-22T04:09:07;16.10;99.90
24158;DHT22;12316;50.904;4.200;2022-10-22T04:11:32;16.10;99.90
24158;DHT22;12316;50.904;4.200;2022-10-22T04:13:58;16.20;99.90
24158;DHT22;12316;50.904;4.200;2022-10-22T04:16:23;16.10;99.90
24158;DHT22;12316;50.904;4.200;2022-10-22T04:18:49;16.10;99.90
24158;DHT22;12316;50.904;4.200;2022-10-22T04:21:17;16.00;99.90
24158;DHT22;12316;50.904;4.200;2022-10-22T04:23:45;16.00;99.90
24158;DHT22;12316;50.904;4.200;2022-10-22T04:26:10;16.00;99.90
24158;DHT22;12316;50.904;4.200;2022-10-22T04:28:36;15.90;99.90
24158;DHT22;12316;50.904;4.200;2022-10-22T04:31:13;15.90;99.90
24158;DHT22;12316;50.904;4.200;2022-10-22T04:33:38;15.90;99.90
24158;DHT22;12316;50.904;4.200;2022-10-22T04:36:09;15.90;99.90
24158;DHT22;12316;50.904;4.200;2022-10-22T04:38:36;15.80;99.90
24158;DHT22;12316;50.904;4.200;2022-10-22T04:41:14;15.80;99.90
24158;DHT22;12316;50.904;4.200;2022-10-22T04:43:40;15.80;99.90
24158;DHT22;12316;50.904;4.200;2022-10-22T04:46:07;15.70;99.90
24158;DHT22;12316;50.904;4.200;2022-10-22T04:48:37;15.70;99.90
24158;DHT22;12316;50.904;4.200;2022-10-22T04:51:04;15.70;99.90
24158;DHT22;12316;50.904;4.200;2022-10-22T04:53:29;15.70;99.90
24158;DHT22;12316;50.904;4.200;2022-10-22T04:56:11;15.70;99.90
24158;DHT22;12316;50.904;4.200;2022-10-22T04:58:38;15.70;99.90
24158;DHT22;12316;50.904;4.200;2022-10-22T05:01:15;15.70;99.90
24158;DHT22;12316;50.904;4.200;2022-10-22T05:03:41;15.80;99.90
24158;DHT22;12316;50.904;4.200;2022-10-22T05:06:07;15.80;99.90
24158;DHT22;12316;50.904;4.200;2022-10-22T05:08:33;15.90;99.90
24158;DHT22;12316;50.904;4.200;2022-10-22T05:10:58;15.90;99.90
24158;DHT22;12316;50.904;4.200;2022-10-22T05:13:24;15.90;99.90
24158;DHT22;12316;50.904;4.200;2022-10-22T05:15:50;16.00;99.90
24158;DHT22;12316;50.904;4.200;2022-10-22T05:18:15;16.10;99.90
24158;DHT22;12316;50.904;4.200;2022-10-22T05:20:41;16.10;99.90
24158;DHT22;12316;50.904;4.200;2022-10-22T05:23:07;16.20;99.90
24158;DHT22;12316;50.904;4.200;2022-10-22T05:25:38;16.30;99.90
24158;DHT22;12316;50.904;4.200;2022-10-22T05:28:04;16.40;99.90
24158;DHT22;12316;50.904;4.200;2022-10-22T05:30:30;16.40;99.90
24158;DHT22;12316;50.904;4.200;2022-10-22T05:32:55;16.50;99.90
24158;DHT22;12316;50.904;4.200;2022-10-22T05:35:21;16.50;99.90
24158;DHT22;12316;50.904;4.200;2022-10-22T05:37:46;16.50;99.90
24158;DHT22;12316;50.904;4.200;2022-10-22T05:40:12;16.50;99.90
24158;DHT22;12316;50.904;4.200;2022-10-22T05:42:38;16.50;99.90
24158;DHT22;12316;50.904;4.200;2022-10-22T05:45:04;16.50;99.90
24158;DHT22;12316;50.904;4.200;2022-10-22T05:47:29;16.40;99.90
24158;DHT22;12316;50.904;4.200;2022-10-22T05:49:55;16.40;99.90
24158;DHT22;12316;50.904;4.200;2022-10-22T05:52:22;16.40;99.90
24158;DHT22;12316;50.904;4.200;2022-10-22T05:54:48;16.40;99.90
24158;DHT22;12316;50.904;4.200;2022-10-22T05:57:14;16.50;99.90
24158;DHT22;12316;50.904;4.200;2022-10-22T05:59:40;16.50;99.90
24158;DHT22;12316;50.904;4.200;2022-10-22T06:02:07;16.50;99.90
24158;DHT22;12316;50.904;4.200;2022-10-22T06:04:33;16.50;99.90
24158;DHT22;12316;50.904;4.200;2022-10-22T06:06:59;16.50;99.90
24158;DHT22;12316;50.904;4.200;2022-10-22T06:09:30;16.60;99.90
24158;DHT22;12316;50.904;4.200;2022-10-22T06:11:57;16.60;99.90
24158;DHT22;12316;50.904;4.200;2022-10-22T06:14:23;16.60;99.90
24158;DHT22;12316;50.904;4.200;2022-10-22T06:16:49;16.70;99.90
24158;DHT22;12316;50.904;4.200;2022-10-22T06:19:22;16.70;99.90
24158;DHT22;12316;50.904;4.200;2022-10-22T06:21:49;16.80;99.90
24158;DHT22;12316;50.904;4.200;2022-10-22T06:24:15;16.80;99.90
24158;DHT22;12316;50.904;4.200;2022-10-22T06:26:41;16.80;99.90
24158;DHT22;12316;50.904;4.200;2022-10-22T06:29:07;16.90;99.90
24158;DHT22;12316;50.904;4.200;2022-10-22T06:31:33;16.90;99.90
24158;DHT22;12316;50.904;4.200;2022-10-22T06:34:10;17.00;99.90
24158;DHT22;12316;50.904;4.200;2022-10-22T06:36:36;17.00;99.90
24158;DHT22;12316;50.904;4.200;2022-10-22T06:39:02;17.00;99.90
24158;DHT22;12316;50.904;4.200;2022-10-22T06:41:28;17.00;99.90
24158;DHT22;12316;50.904;4.200;2022-10-22T06:43:54;17.00;99.90
24158;DHT22;12316;50.904;4.200;2022-10-22T06:46:22;17.00;99.90
24158;DHT22;12316;50.904;4.200;2022-10-22T06:48:53;16.90;99.90
24158;DHT22;12316;50.904;4.200;2022-10-22T06:51:19;17.00;99.90
24158;DHT22;12316;50.904;4.200;2022-10-22T06:53:45;17.00;99.90
24158;DHT22;12316;50.904;4.200;2022-10-22T06:56:17;17.00;99.90
24158;DHT22;12316;50.904;4.200;2022-10-22T06:58:45;17.00;99.90
24158;DHT22;12316;50.904;4.200;2022-10-22T07:01:13;17.10;99.90
24158;DHT22;12316;50.904;4.200;2022-10-22T07:03:39;17.00;99.90
24158;DHT22;12316;50.904;4.200;2022-10-22T07:06:08;17.00;99.90
24158;DHT22;12316;50.904;4.200;2022-10-22T07:08:34;17.00;99.90
24158;DHT22;12316;50.904;4.200;2022-10-22T07:11:12;17.00;99.90
24158;DHT22;12316;50.904;4.200;2022-10-22T07:13:38;16.90;99.90
24158;DHT22;12316;50.904;4.200;2022-10-22T07:16:05;16.90;99.90
24158;DHT22;12316;50.904;4.200;2022-10-22T07:18:32;16.90;99.90
24158;DHT22;12316;50.904;4.200;2022-10-22T07:20:58;16.80;99.90
24158;DHT22;12316;50.904;4.200;2022-10-22T07:23:24;16.80;99.90
24158;DHT22;12316;50.904;4.200;2022-10-22T07:25:49;16.80;99.90
24158;DHT22;12316;50.904;4.200;2022-10-22T07:28:15;16.80;99.90
24158;DHT22;12316;50.904;4.200;2022-10-22T07:30:41;16.80;99.90
24158;DHT22;12316;50.904;4.200;2022-10-22T07:33:07;16.90;99.90
24158;DHT22;12316;50.904;4.200;2022-10-22T07:35:33;16.90;99.90
24158;DHT22;12316;50.904;4.200;2022-10-22T07:37:59;17.00;99.90
24158;DHT22;12316;50.904;4.200;2022-10-22T07:40:25;17.10;99.90
24158;DHT22;12316;50.904;4.200;2022-10-22T07:42:50;17.20;99.90
24158;DHT22;12316;50.904;4.200;2022-10-22T07:45:16;17.40;99.90
24158;DHT22;12316;50.904;4.200;2022-10-22T07:47:42;17.50;99.90
24158;DHT22;12316;50.904;4.200;2022-10-22T07:50:08;17.60;99.90
24158;DHT22;12316;50.904;4.200;2022-10-22T07:52:34;17.60;99.90
24158;DHT22;12316;50.904;4.200;2022-10-22T07:54:59;17.70;99.90
24158;DHT22;12316;50.904;4.200;2022-10-22T07:57:25;17.80;99.90
24158;DHT22;12316;50.904;4.200;2022-10-22T07:59:51;17.90;99.90
24158;DHT22;12316;50.904;4.200;2022-10-22T08:02:16;17.90;99.90
24158;DHT22;12316;50.904;4.200;2022-10-22T08:04:42;17.90;99.90
24158;DHT22;12316;50.904;4.200;2022-10-22T08:07:07;18.00;99.90
24158;DHT22;12316;50.904;4.200;2022-10-22T08:09:33;18.00;99.90
24158;DHT22;12316;50.904;4.200;2022-10-22T08:11:59;18.10;99.90
24158;DHT22;12316;50.904;4.200;2022-10-22T08:14:24;18.20;99.90
24158;DHT22;12316;50.904;4.200;2022-10-22T08:16:51;18.20;99.90
24158;DHT22;12316;50.904;4.200;2022-10-22T08:19:16;18.20;99.90
24158;DHT22;12316;50.904;4.200;2022-10-22T08:21:45;18.20;99.90
24158;DHT22;12316;50.904;4.200;2022-10-22T08:24:11;18.10;99.90
24158;DHT22;12316;50.904;4.200;2022-10-22T08:26:36;18.10;99.90
24158;DHT22;12316;50.904;4.200;2022-10-22T08:29:02;18.20;99.90
24158;DHT22;12316;50.904;4.200;2022-10-22T08:31:28;18.20;99.90
24158;DHT22;12316;50.904;4.200;2022-10-22T08:33:54;18.40;99.90
24158;DHT22;12316;50.904;4.200;2022-10-22T08:36:19;18.40;99.90
24158;DHT22;12316;50.904;4.200;2022-10-22T08:38:45;18.40;99.90
24158;DHT22;12316;50.904;4.200;2022-10-22T08:46:51;18.60;99.90
24158;DHT22;12316;50.904;4.200;2022-10-22T08:49:29;18.80;99.90
24158;DHT22;12316;50.904;4.200;2022-10-22T08:51:57;18.90;99.90
24158;DHT22;12316;50.904;4.200;2022-10-22T08:54:50;18.90;99.90
24158;DHT22;12316;50.904;4.200;2022-10-22T09:07:48;18.80;99.90
24158;DHT22;12316;50.904;4.200;2022-10-22T09:10:17;18.80;99.90
24158;DHT22;12316;50.904;4.200;2022-10-22T09:12:43;18.70;99.90
24158;DHT22;12316;50.904;4.200;2022-10-22T09:15:17;18.70;99.90
24158;DHT22;12316;50.904;4.200;2022-10-22T09:18:04;18.60;99.90
24158;DHT22;12316;50.904;4.200;2022-10-22T09:21:18;18.60;99.90
24158;DHT22;12316;50.904;4.200;2022-10-22T09:24:03;18.60;99.90
24158;DHT22;12316;50.904;4.200;2022-10-22T09:26:32;18.70;99.90
24158;DHT22;12316;50.904;4.200;2022-10-22T09:29:01;18.70;99.90
24158;DHT22;12316;50.904;4.200;2022-10-22T09:31:29;18.70;99.90
24158;DHT22;12316;50.904;4.200;2022-10-22T09:33:55;18.80;99.90
24158;DHT22;12316;50.904;4.200;2022-10-22T09:36:22;18.80;99.90
24158;DHT22;12316;50.904;4.200;2022-10-22T09:38:50;19.00;99.90
24158;DHT22;12316;50.904;4.200;2022-10-22T09:41:18;19.00;99.90
24158;DHT22;12316;50.904;4.200;2022-10-22T09:43:46;19.10;99.90
24158;DHT22;12316;50.904;4.200;2022-10-22T09:46:19;19.20;99.90
24158;DHT22;12316;50.904;4.200;2022-10-22T09:49:08;19.00;99.90
24158;DHT22;12316;50.904;4.200;2022-10-22T09:51:54;19.20;99.90
24158;DHT22;12316;50.904;4.200;2022-10-22T09:57:03;19.20;99.90
24158;DHT22;12316;50.904;4.200;2022-10-22T09:59:30;19.30;99.90
24158;DHT22;12316;50.904;4.200;2022-10-22T10:04:41;19.30;99.90
24158;DHT22;12316;50.904;4.200;2022-10-22T10:07:21;19.50;99.90
24158;DHT22;12316;50.904;4.200;2022-10-22T10:09:48;19.60;99.90
24158;DHT22;12316;50.904;4.200;2022-10-22T10:15:14;20.00;99.90
24158;DHT22;12316;50.904;4.200;2022-10-22T10:18:43;20.00;99.90
24158;DHT22;12316;50.904;4.200;2022-10-22T10:24:02;20.20;99.90
24158;DHT22;12316;50.904;4.200;2022-10-22T10:26:33;20.30;99.90
24158;DHT22;12316;50.904;4.200;2022-10-22T10:35:01;20.50;99.90
24158;DHT22;12316;50.904;4.200;2022-10-22T10:37:34;20.60;99.90
24158;DHT22;12316;50.904;4.200;2022-10-22T10:40:26;20.80;99.90
24158;DHT22;12316;50.904;4.200;2022-10-22T10:43:14;20.90;99.90
24158;DHT22;12316;50.904;4.200;2022-10-22T10:45:56;21.10;99.90
24158;DHT22;12316;50.904;4.200;2022-10-22T10:51:22;21.30;99.90
24158;DHT22;12316;50.904;4.200;2022-10-22T10:54:33;21.20;99.90
24158;DHT22;12316;50.904;4.200;2022-10-22T10:57:17;21.40;99.90
24158;DHT22;12316;50.904;4.200;2022-10-22T11:00:07;21.50;99.90
24158;DHT22;12316;50.904;4.200;2022-10-22T11:08:10;21.30;99.90
24158;DHT22;12316;50.904;4.200;2022-10-22T11:16:22;21.60;99.90
24158;DHT22;12316;50.904;4.200;2022-10-22T11:19:22;21.90;99.90
24158;DHT22;12316;50.904;4.200;2022-10-22T11:22:19;22.10;99.90
24158;DHT22;12316;50.904;4.200;2022-10-22T11:24:50;22.30;99.90
24158;DHT22;12316;50.904;4.200;2022-10-22T11:27:27;22.40;99.90
24158;DHT22;12316;50.904;4.200;2022-10-22T11:30:10;22.50;99.90
24158;DHT22;12316;50.904;4.200;2022-10-22T11:32:38;22.60;99.90
24158;DHT22;12316;50.904;4.200;2022-10-22T11:35:08;22.70;99.90
24158;DHT22;12316;50.904;4.200;2022-10-22T11:37:36;22.90;99.90
24158;DHT22;12316;50.904;4.200;2022-10-22T11:40:21;22.90;99.90
24158;DHT22;12316;50.904;4.200;2022-10-22T11:42:53;22.70;99.90
24158;DHT22;12316;50.904;4.200;2022-10-22T11:48:13;22.70;99.90
24158;DHT22;12316;50.904;4.200;2022-10-22T11:50:54;22.70;99.90
24158;DHT22;12316;50.904;4.200;2022-10-22T11:55:51;22.60;99.90
24158;DHT22;12316;50.904;4.200;2022-10-22T11:58:40;22.40;99.90
24158;DHT22;12316;50.904;4.200;2022-10-22T12:03:39;22.40;99.90
24158;DHT22;12316;50.904;4.200;2022-10-22T12:16:28;22.00;99.90
24158;DHT22;12316;50.904;4.200;2022-10-22T12:21:32;21.70;99.90
24158;DHT22;12316;50.904;4.200;2022-10-22T12:23:59;21.80;99.90
24158;DHT22;12316;50.904;4.200;2022-10-22T12:26:29;21.90;99.90
24158;DHT22;12316;50.904;4.200;2022-10-22T12:28:59;22.10;99.90
24158;DHT22;12316;50.904;4.200;2022-10-22T12:31:26;22.10;99.90
24158;DHT22;12316;50.904;4.200;2022-10-22T12:33:56;22.20;99.90
24158;DHT22;12316;50.904;4.200;2022-10-22T12:36:21;22.20;99.90
24158;DHT22;12316;50.904;4.200;2022-10-22T12:38:49;22.20;99.90
24158;DHT22;12316;50.904;4.200;2022-10-22T12:41:15;22.20;99.90
24158;DHT22;12316;50.904;4.200;2022-10-22T12:43:40;22.20;99.90
24158;DHT22;12316;50.904;4.200;2022-10-22T12:46:13;22.20;99.90
24158;DHT22;12316;50.904;4.200;2022-10-22T12:48:42;22.30;99.90
24158;DHT22;12316;50.904;4.200;2022-10-22T12:51:15;22.20;99.90
24158;DHT22;12316;50.904;4.200;2022-10-22T12:54:14;22.10;99.90
24158;DHT22;12316;50.904;4.200;2022-10-22T12:56:41;21.90;99.90
24158;DHT22;12316;50.904;4.200;2022-10-22T12:59:23;21.90;99.90
24158;DHT22;12316;50.904;4.200;2022-10-22T13:01:50;21.70;99.90
24158;DHT22;12316;50.904;4.200;2022-10-22T13:04:21;21.70;99.90
24158;DHT22;12316;50.904;4.200;2022-10-22T13:07:01;21.70;99.90
24158;DHT22;12316;50.904;4.200;2022-10-22T13:09:40;21.70;99.90
24158;DHT22;12316;50.904;4.200;2022-10-22T13:12:08;21.70;99.90
24158;DHT22;12316;50.904;4.200;2022-10-22T13:14:39;21.70;99.90
24158;DHT22;12316;50.904;4.200;2022-10-22T13:17:17;21.80;99.90
24158;DHT22;12316;50.904;4.200;2022-10-22T13:22:37;21.90;99.90
24158;DHT22;12316;50.904;4.200;2022-10-22T13:27:45;22.00;99.90
24158;DHT22;12316;50.904;4.200;2022-10-22T13:30:35;22.20;99.90
24158;DHT22;12316;50.904;4.200;2022-10-22T13:33:16;22.20;99.90
24158;DHT22;12316;50.904;4.200;2022-10-22T13:35:45;22.40;99.90
24158;DHT22;12316;50.904;4.200;2022-10-22T13:38:17;22.50;99.90
24158;DHT22;12316;50.904;4.200;2022-10-22T13:40:44;22.30;99.90
24158;DHT22;12316;50.904;4.200;2022-10-22T13:43:09;22.30;99.90
24158;DHT22;12316;50.904;4.200;2022-10-22T13:45:35;22.20;99.90
24158;DHT22;12316;50.904;4.200;2022-10-22T13:48:01;22.10;99.90
24158;DHT22;12316;50.904;4.200;2022-10-22T13:50:26;22.10;99.90
24158;DHT22;12316;50.904;4.200;2022-10-22T13:52:54;22.00;99.90
24158;DHT22;12316;50.904;4.200;2022-10-22T13:55:23;22.00;99.90
24158;DHT22;12316;50.904;4.200;2022-10-22T13:57:57;22.00;99.90
24158;DHT22;12316;50.904;4.200;2022-10-22T14:00:25;22.00;99.90
24158;DHT22;12316;50.904;4.200;2022-10-22T14:02:53;22.00;99.90
24158;DHT22;12316;50.904;4.200;2022-10-22T14:05:21;22.00;99.90
24158;DHT22;12316;50.904;4.200;2022-10-22T14:07:47;22.10;99.90
24158;DHT22;12316;50.904;4.200;2022-10-22T14:10:23;22.10;99.90
24158;DHT22;12316;50.904;4.200;2022-10-22T14:12:49;22.20;99.90
24158;DHT22;12316;50.904;4.200;2022-10-22T14:15:17;22.20;99.90
24158;DHT22;12316;50.904;4.200;2022-10-22T14:17:47;22.10;99.90
24158;DHT22;12316;50.904;4.200;2022-10-22T14:20:40;21.90;99.90
24158;DHT22;12316;50.904;4.200;2022-10-22T14:23:15;21.80;99.90
24158;DHT22;12316;50.904;4.200;2022-10-22T14:25:42;21.60;99.90
24158;DHT22;12316;50.904;4.200;2022-10-22T14:28:09;21.70;99.90
24158;DHT22;12316;50.904;4.200;2022-10-22T14:30:35;21.60;99.90
24158;DHT22;12316;50.904;4.200;2022-10-22T14:33:01;21.70;99.90
24158;DHT22;12316;50.904;4.200;2022-10-22T14:35:27;21.60;99.90
24158;DHT22;12316;50.904;4.200;2022-10-22T14:37:52;21.60;99.90
24158;DHT22;12316;50.904;4.200;2022-10-22T14:40:19;21.50;99.90
24158;DHT22;12316;50.904;4.200;2022-10-22T14:42:47;21.40;99.90
24158;DHT22;12316;50.904;4.200;2022-10-22T14:45:19;21.40;99.90
24158;DHT22;12316;50.904;4.200;2022-10-22T14:47:45;21.30;99.90
24158;DHT22;12316;50.904;4.200;2022-10-22T14:50:11;21.20;99.90
24158;DHT22;12316;50.904;4.200;2022-10-22T14:52:38;21.20;99.90
24158;DHT22;12316;50.904;4.200;2022-10-22T14:55:04;21.30;99.90
24158;DHT22;12316;50.904;4.200;2022-10-22T14:57:30;21.40;99.90
24158;DHT22;12316;50.904;4.200;2022-10-22T14:59:55;21.40;99.90
24158;DHT22;12316;50.904;4.200;2022-10-22T15:02:21;21.50;99.90
24158;DHT22;12316;50.904;4.200;2022-10-22T15:04:48;21.40;99.90
24158;DHT22;12316;50.904;4.200;2022-10-22T15:07:14;21.30;99.90
24158;DHT22;12316;50.904;4.200;2022-10-22T15:09:39;21.30;99.90
24158;DHT22;12316;50.904;4.200;2022-10-22T15:12:05;21.30;99.90
24158;DHT22;12316;50.904;4.200;2022-10-22T15:14:30;21.20;99.90
24158;DHT22;12316;50.904;4.200;2022-10-22T15:16:58;21.20;99.90
24158;DHT22;12316;50.904;4.200;2022-10-22T15:19:24;21.10;99.90
24158;DHT22;12316;50.904;4.200;2022-10-22T15:21:50;21.10;99.90
24158;DHT22;12316;50.904;4.200;2022-10-22T15:24:16;21.10;99.90
24158;DHT22;12316;50.904;4.200;2022-10-22T15:26:41;21.10;99.90
24158;DHT22;12316;50.904;4.200;2022-10-22T15:29:07;21.10;99.90
24158;DHT22;12316;50.904;4.200;2022-10-22T15:34:07;21.00;99.90
24158;DHT22;12316;50.904;4.200;2022-10-22T15:36:33;21.00;99.90
24158;DHT22;12316;50.904;4.200;2022-10-22T15:38:58;21.10;99.90
24158;DHT22;12316;50.904;4.200;2022-10-22T15:41:24;21.10;99.90
24158;DHT22;12316;50.904;4.200;2022-10-22T15:43:49;21.00;99.90
24158;DHT22;12316;50.904;4.200;2022-10-22T15:46:18;21.00;99.90
24158;DHT22;12316;50.904;4.200;2022-10-22T15:48:44;21.00;99.90
24158;DHT22;12316;50.904;4.200;2022-10-22T15:51:19;20.90;99.90
24158;DHT22;12316;50.904;4.200;2022-10-22T15:53:53;20.80;99.90
24158;DHT22;12316;50.904;4.200;2022-10-22T15:56:19;20.70;99.90
24158;DHT22;12316;50.904;4.200;2022-10-22T15:58:44;20.60;99.90
24158;DHT22;12316;50.904;4.200;2022-10-22T16:01:12;20.50;99.90
24158;DHT22;12316;50.904;4.200;2022-10-22T16:03:38;20.40;99.90
24158;DHT22;12316;50.904;4.200;2022-10-22T16:06:04;20.30;99.90
24158;DHT22;12316;50.904;4.200;2022-10-22T16:08:32;20.30;99.90
24158;DHT22;12316;50.904;4.200;2022-10-22T16:10:57;20.10;99.90
24158;DHT22;12316;50.904;4.200;2022-10-22T16:13:23;20.00;99.90
24158;DHT22;12316;50.904;4.200;2022-10-22T16:15:50;19.80;99.90
24158;DHT22;12316;50.904;4.200;2022-10-22T16:18:17;19.70;99.90
24158;DHT22;12316;50.904;4.200;2022-10-22T16:20:43;19.50;99.90
24158;DHT22;12316;50.904;4.200;2022-10-22T16:23:09;19.30;99.90
24158;DHT22;12316;50.904;4.200;2022-10-22T16:25:41;19.20;99.90
24158;DHT22;12316;50.904;4.200;2022-10-22T16:28:08;19.10;99.90
24158;DHT22;12316;50.904;4.200;2022-10-22T16:30:35;19.10;99.90
24158;DHT22;12316;50.904;4.200;2022-10-22T16:33:01;19.10;99.90
24158;DHT22;12316;50.904;4.200;2022-10-22T16:35:28;19.00;99.90
24158;DHT22;12316;50.904;4.200;2022-10-22T16:37:54;18.90;99.90
24158;DHT22;12316;50.904;4.200;2022-10-22T16:40:19;19.00;99.90
24158;DHT22;12316;50.904;4.200;2022-10-22T16:42:45;18.90;99.90
24158;DHT22;12316;50.904;4.200;2022-10-22T16:45:10;18.90;99.90
24158;DHT22;12316;50.904;4.200;2022-10-22T16:47:36;18.80;99.90
24158;DHT22;12316;50.904;4.200;2022-10-22T16:50:03;18.70;99.90
24158;DHT22;12316;50.904;4.200;2022-10-22T16:52:29;18.50;99.90
24158;DHT22;12316;50.904;4.200;2022-10-22T16:54:54;18.40;99.90
24158;DHT22;12316;50.904;4.200;2022-10-22T16:57:20;18.20;99.90
24158;DHT22;12316;50.904;4.200;2022-10-22T16:59:46;18.10;99.90
24158;DHT22;12316;50.904;4.200;2022-10-22T17:02:12;18.00;99.90
24158;DHT22;12316;50.904;4.200;2022-10-22T17:04:37;18.00;99.90
24158;DHT22;12316;50.904;4.200;2022-10-22T17:07:03;17.90;99.90
24158;DHT22;12316;50.904;4.200;2022-10-22T17:09:28;17.90;99.90
24158;DHT22;12316;50.904;4.200;2022-10-22T17:11:55;17.80;99.90
24158;DHT22;12316;50.904;4.200;2022-10-22T17:14:21;17.70;99.90
24158;DHT22;12316;50.904;4.200;2022-10-22T17:16:46;17.60;99.90
24158;DHT22;12316;50.904;4.200;2022-10-22T17:19:19;17.50;99.90
24158;DHT22;12316;50.904;4.200;2022-10-22T17:21:45;17.40;99.90
24158;DHT22;12316;50.904;4.200;2022-10-22T17:24:11;17.30;99.90